Time;durP1;ratioP1;P1;durP2;ratioP2;P2;SDS_P1;SDS_P2;PMS_P1;PMS_P2;Temp;Humidity;BMP_temperature;BMP_pressure;BME280_temperature;BME280_humidity;BME280_pressure;Samples;Min_cycle;Max_cycle;Signal;HPM_P1;HPM_P2
2023/11/02 00:00:36;;;;;;;11.25;6.50;;;15.80;88.10;;;;;;6139290;23;20002;-87
2023/11/02 00:03:07;;;;;;;13.48;6.55;;;15.80;88.60;;;;;;6109174;23;20014;-89
2023/11/02 00:05:54;;;;;;;11.57;6.30;;;15.90;88.30;;;;;;6129183;23;20061;-89
2023/11/02 00:08:24;;;;;;;15.30;6.45;;;15.90;88.70;;;;;;6134274;23;20034;-89
2023/11/02 00:10:50;;;;;;;12.38;6.75;;;15.90;88.20;;;;;;6127466;23;20081;-89
2023/11/02 00:13:28;;;;;;;14.18;7.40;;;15.80;88.10;;;;;;6127008;23;20345;-90
2023/11/02 00:15:54;;;;;;;14.30;7.30;;;15.80;88.40;;;;;;6129137;23;20340;-90
2023/11/02 00:18:22;;;;;;;14.90;7.75;;;15.70;88.40;;;;;;6132295;23;20002;-88
2023/11/02 00:20:49;;;;;;;14.30;7.07;;;15.60;88.60;;;;;;6133473;23;20014;-89
2023/11/02 00:23:33;;;;;;;13.40;7.50;;;15.60;88.70;;;;;;6140681;23;20009;-87
2023/11/02 00:25:58;;;;;;;15.00;7.15;;;15.50;89.00;;;;;;6131841;23;20378;-87
2023/11/02 00:28:25;;;;;;;12.55;6.45;;;15.50;89.00;;;;;;6127166;23;20021;-89
2023/11/02 00:30:51;;;;;;;15.70;6.93;;;15.40;89.10;;;;;;6127183;23;20001;-88
2023/11/02 00:33:18;;;;;;;13.32;6.13;;;15.40;89.20;;;;;;6127064;23;20459;-89
2023/11/02 00:35:49;;;;;;;11.00;6.10;;;15.40;90.00;;;;;;6126996;23;20002;-88
2023/11/02 00:38:23;;;;;;;15.93;6.47;;;15.30;89.20;;;;;;6127319;23;20075;-88
2023/11/02 00:40:49;;;;;;;11.63;6.22;;;15.30;89.40;;;;;;6101807;23;19998;-88
2023/11/02 00:43:16;;;;;;;13.35;5.80;;;15.30;89.20;;;;;;6126512;23;20439;-90
2023/11/02 00:45:42;;;;;;;13.15;6.43;;;15.30;89.30;;;;;;6126091;23;20009;-88
2023/11/02 00:48:33;;;;;;;13.15;6.47;;;15.30;89.30;;;;;;6128160;23;20009;-89
2023/11/02 00:51:20;;;;;;;13.65;6.80;;;15.40;89.10;;;;;;6114385;23;20089;-87
2023/11/02 00:53:50;;;;;;;13.25;6.20;;;15.40;89.00;;;;;;6128393;23;20018;-88
2023/11/02 00:56:17;;;;;;;11.50;6.20;;;15.40;89.10;;;;;;6102000;23;20010;-88
2023/11/02 00:58:56;;;;;;;12.52;5.32;;;15.40;89.10;;;;;;6128014;23;20050;-88
2023/11/02 01:01:24;;;;;;;13.48;6.10;;;15.50;88.90;;;;;;6128691;23;20464;-89
2023/11/02 01:04:26;;;;;;;12.55;6.13;;;15.50;88.60;;;;;;6129248;23;20001;-88
2023/11/02 01:06:52;;;;;;;9.25;4.97;;;15.50;88.60;;;;;;6127760;23;20029;-87
2023/11/02 01:09:17;;;;;;;10.63;4.88;;;15.40;88.30;;;;;;6127420;23;20428;-88
2023/11/02 01:11:44;;;;;;;12.35;4.82;;;15.40;88.40;;;;;;6128307;23;20010;-89
2023/11/02 01:15:03;;;;;;;9.90;4.97;;;15.30;88.40;;;;;;6126949;23;20033;-87
2023/11/02 01:17:35;;;;;;;10.32;4.90;;;15.30;88.40;;;;;;6046130;23;20014;-87
2023/11/02 01:20:11;;;;;;;10.00;5.35;;;15.20;88.70;;;;;;6134245;23;20006;-88
2023/11/02 01:22:55;;;;;;;8.82;4.55;;;15.20;88.50;;;;;;6129014;23;20002;-87
2023/11/02 01:25:26;;;;;;;9.07;4.30;;;15.20;88.50;;;;;;6128629;23;20089;-87
2023/11/02 01:28:03;;;;;;;11.63;5.03;;;15.20;88.60;;;;;;6127993;23;20456;-88
2023/11/02 01:30:41;;;;;;;8.30;4.40;;;15.20;88.40;;;;;;6128977;23;20002;-88
2023/11/02 01:33:36;;;;;;;10.10;5.03;;;15.20;88.50;;;;;;6127916;23;20073;-87
2023/11/02 01:36:03;;;;;;;9.32;4.60;;;15.20;88.40;;;;;;6131466;23;20002;-87
2023/11/02 01:38:31;;;;;;;7.53;4.20;;;15.30;88.40;;;;;;6133914;23;20421;-88
2023/11/02 01:41:04;;;;;;;13.32;5.03;;;15.30;88.00;;;;;;6128263;23;20437;-88
2023/11/02 01:43:52;;;;;;;13.93;4.25;;;15.30;88.10;;;;;;6128553;23;19998;-87
2023/11/02 01:46:53;;;;;;;12.00;4.75;;;15.30;88.00;;;;;;6107045;23;20017;-85
2023/11/02 01:49:46;;;;;;;10.85;4.22;;;15.20;88.00;;;;;;6123672;23;20005;-87
2023/11/02 01:52:34;;;;;;;9.30;3.92;;;15.20;88.10;;;;;;6129787;23;20447;-89
2023/11/02 01:55:41;;;;;;;10.10;4.13;;;15.10;87.70;;;;;;6128892;23;20010;-88
2023/11/02 01:58:18;;;;;;;12.07;4.15;;;15.20;87.90;;;;;;6103471;23;20010;-88
2023/11/02 02:00:54;;;;;;;12.63;4.22;;;15.20;87.80;;;;;;6105785;23;20021;-87
2023/11/02 02:03:28;;;;;;;10.35;4.78;;;15.20;87.70;;;;;;6133439;23;20416;-88
2023/11/02 02:06:18;;;;;;;8.50;4.25;;;15.20;87.70;;;;;;6135178;23;20002;-87
2023/11/02 02:12:16;;;;;;;9.95;3.90;;;15.30;87.90;;;;;;6139157;23;20069;-87
2023/11/02 02:14:51;;;;;;;10.38;3.95;;;15.30;87.80;;;;;;6131202;23;20092;-87
2023/11/02 02:17:33;;;;;;;7.50;3.45;;;15.30;87.70;;;;;;6103324;23;20477;-88
2023/11/02 02:20:07;;;;;;;7.90;3.40;;;15.20;87.60;;;;;;6128606;23;20034;-88
2023/11/02 02:23:00;;;;;;;7.60;3.45;;;15.10;87.70;;;;;;6127468;23;20002;-87
2023/11/02 02:25:42;;;;;;;11.70;3.92;;;15.10;87.70;;;;;;6128568;23;20013;-88
2023/11/02 02:28:33;;;;;;;9.25;3.28;;;15.10;87.40;;;;;;6146002;23;20029;-86
2023/11/02 02:31:33;;;;;;;5.70;3.00;;;15.10;87.50;;;;;;6149416;23;20006;-87
2023/11/02 02:34:30;;;;;;;8.05;3.47;;;15.10;87.50;;;;;;6131725;23;20018;-87
2023/11/02 02:37:08;;;;;;;8.13;3.47;;;15.10;87.30;;;;;;6111754;23;20013;-88
2023/11/02 02:45:41;;;;;;;7.88;3.08;;;15.30;87.10;;;;;;6127523;23;20044;-88
2023/11/02 02:48:09;;;;;;;7.70;3.30;;;15.20;86.60;;;;;;6127428;23;19998;-87
2023/11/02 02:50:38;;;;;;;9.40;3.30;;;15.20;86.80;;;;;;6129800;23;20018;-87
2023/11/02 02:53:08;;;;;;;7.53;3.80;;;15.20;86.80;;;;;;6129549;23;20385;-86
2023/11/02 02:55:38;;;;;;;8.07;3.30;;;15.20;86.90;;;;;;6126552;23;20005;-87
2023/11/02 02:58:07;;;;;;;8.88;3.65;;;15.20;87.10;;;;;;6126410;23;20424;-87
2023/11/02 03:00:35;;;;;;;9.68;3.95;;;15.20;86.80;;;;;;6126843;23;20385;-87
2023/11/02 03:03:03;;;;;;;7.68;3.42;;;15.30;86.90;;;;;;6126919;23;20010;-86
2023/11/02 03:08:28;;;;;;;9.45;3.25;;;15.20;87.00;;;;;;6127307;23;20381;-87
2023/11/02 03:10:54;;;;;;;11.43;3.63;;;15.20;86.70;;;;;;6127756;23;20432;-87
2023/11/02 03:13:23;;;;;;;7.45;3.28;;;15.20;86.80;;;;;;6128396;23;20101;-88
2023/11/02 03:15:51;;;;;;;7.97;3.60;;;15.20;86.80;;;;;;6128730;23;20073;-86
2023/11/02 03:18:16;;;;;;;8.20;3.40;;;15.20;86.70;;;;;;6138896;23;20097;-85
2023/11/02 03:20:43;;;;;;;6.82;2.65;;;15.20;86.60;;;;;;6142616;23;19998;-86
2023/11/02 03:23:37;;;;;;;8.20;2.80;;;15.20;86.70;;;;;;6130700;23;20002;-87
2023/11/02 03:26:26;;;;;;;8.07;2.80;;;15.20;87.00;;;;;;6127791;23;20028;-87
2023/11/02 03:29:01;;;;;;;8.25;3.15;;;15.20;86.90;;;;;;6105111;23;20022;-87
2023/11/02 03:31:52;;;;;;;7.80;3.13;;;15.20;87.00;;;;;;6100822;23;20016;-88
2023/11/02 03:34:40;;;;;;;9.77;3.22;;;15.10;87.00;;;;;;6126973;23;20028;-88
2023/11/02 03:37:20;;;;;;;5.78;2.83;;;15.10;87.10;;;;;;6127156;23;20006;-87
2023/11/02 03:40:18;;;;;;;6.57;2.97;;;15.00;87.20;;;;;;6127008;23;20017;-88
2023/11/02 03:42:53;;;;;;;7.50;2.50;;;15.00;87.20;;;;;;6126844;23;20013;-89
2023/11/02 03:45:41;;;;;;;9.90;2.95;;;15.00;87.20;;;;;;6126610;23;19997;-88
2023/11/02 03:48:37;;;;;;;6.70;2.45;;;15.00;87.20;;;;;;6130576;23;20073;-88
2023/11/02 03:51:11;;;;;;;6.68;2.67;;;15.00;87.30;;;;;;6127551;23;20321;-89
2023/11/02 03:53:51;;;;;;;7.53;2.58;;;15.00;87.40;;;;;;6127293;23;20080;-88
2023/11/02 03:56:51;;;;;;;8.60;2.30;;;15.00;87.50;;;;;;6126895;23;20101;-89
2023/11/02 03:59:30;;;;;;;8.65;2.38;;;15.00;87.30;;;;;;6102728;23;20018;-87
2023/11/02 04:02:02;;;;;;;6.03;2.40;;;15.00;87.40;;;;;;6126480;23;20005;-85
2023/11/02 04:04:35;;;;;;;8.10;2.78;;;15.10;87.40;;;;;;6126643;23;20002;-89
2023/11/02 04:07:03;;;;;;;8.82;2.58;;;15.10;87.30;;;;;;6126097;23;20009;-86
2023/11/02 04:09:39;;;;;;;6.65;2.50;;;15.10;87.20;;;;;;6126166;23;20421;-87
2023/11/02 04:12:28;;;;;;;7.43;2.80;;;15.10;87.20;;;;;;6126225;23;20029;-88
2023/11/02 04:14:56;;;;;;;7.95;2.33;;;15.20;87.20;;;;;;6071643;23;20032;-88
2023/11/02 04:17:22;;;;;;;5.32;2.40;;;15.20;87.30;;;;;;6125934;23;20085;-88
2023/11/02 04:19:48;;;;;;;6.90;2.55;;;15.20;87.20;;;;;;6125802;23;20002;-88
2023/11/02 04:22:14;;;;;;;7.05;2.67;;;15.20;87.20;;;;;;6126822;23;20002;-88
2023/11/02 04:24:42;;;;;;;4.25;1.98;;;15.20;87.20;;;;;;6128560;23;20121;-87
2023/11/02 11:18:50;;;;;;;12.48;2.67;;;21.50;84.50;;;;;;6091383;23;20623;-79
2023/11/02 11:21:18;;;;;;;6.97;2.20;;;21.60;84.10;;;;;;6122710;23;20022;-81
2023/11/02 11:23:48;;;;;;;9.57;2.17;;;21.60;84.00;;;;;;6124956;23;20361;-81
2023/11/02 11:26:15;;;;;;;8.93;2.03;;;21.60;83.80;;;;;;6125135;23;20002;-81
2023/11/02 11:28:41;;;;;;;12.07;2.70;;;21.60;83.70;;;;;;6125041;23;20037;-82
2023/11/02 11:31:45;;;;;;;11.75;2.45;;;21.60;83.80;;;;;;6124606;23;19998;-86
2023/11/02 11:34:11;;;;;;;7.68;2.05;;;21.70;84.00;;;;;;6124661;23;20384;-85
2023/11/02 11:36:36;;;;;;;7.97;2.15;;;21.80;83.80;;;;;;6125259;23;20026;-83
2023/11/02 11:39:32;;;;;;;15.27;3.05;;;21.80;83.70;;;;;;6124214;23;20013;-82
2023/11/02 11:41:58;;;;;;;13.90;3.00;;;21.90;84.20;;;;;;6124711;23;20013;-83
2023/11/02 11:44:25;;;;;;;11.02;2.38;;;21.90;83.70;;;;;;6124866;23;20012;-80
2023/11/02 11:46:53;;;;;;;8.00;2.67;;;22.00;84.00;;;;;;6098363;23;20069;-82
2023/11/02 11:49:34;;;;;;;6.95;2.38;;;22.00;83.90;;;;;;6125366;23;20077;-72
2023/11/02 11:52:05;;;;;;;7.55;2.50;;;22.00;83.90;;;;;;6124621;23;20324;-71
2023/11/02 11:54:31;;;;;;;8.65;2.40;;;22.00;83.90;;;;;;6124450;23;20432;-74
2023/11/02 11:56:58;;;;;;;9.68;2.50;;;22.00;83.20;;;;;;6124198;23;20002;-71
2023/11/02 11:59:51;;;;;;;15.45;3.05;;;22.10;83.30;;;;;;6124711;23;19998;-73
2023/11/02 12:02:33;;;;;;;9.15;2.45;;;22.20;83.80;;;;;;6124384;23;20056;-71
2023/11/02 12:04:59;;;;;;;9.70;2.05;;;22.20;83.30;;;;;;6124926;23;20010;-75
2023/11/02 12:07:27;;;;;;;11.23;2.50;;;22.30;83.50;;;;;;6123926;23;20214;-73
2023/11/02 12:09:53;;;;;;;6.05;2.03;;;22.30;83.50;;;;;;6123320;23;20300;-72
2023/11/02 12:12:19;;;;;;;7.43;2.20;;;22.30;83.40;;;;;;6124150;23;20002;-73
2023/11/02 12:14:46;;;;;;;8.23;2.10;;;22.30;83.20;;;;;;6124796;23;20017;-74
2023/11/02 12:17:12;;;;;;;9.43;2.40;;;22.20;83.10;;;;;;6124886;23;20073;-72
2023/11/02 12:19:42;;;;;;;8.38;2.50;;;22.20;83.10;;;;;;6124467;23;20069;-71
2023/11/02 12:22:10;;;;;;;14.20;2.40;;;22.20;83.10;;;;;;6124805;23;20015;-73
2023/11/02 12:24:53;;;;;;;13.13;2.78;;;22.30;82.90;;;;;;6124506;23;20330;-72
2023/11/02 12:27:20;;;;;;;11.93;2.33;;;22.30;82.90;;;;;;6124215;23;20002;-73
2023/11/02 12:29:58;;;;;;;7.97;2.40;;;22.30;82.90;;;;;;6124523;23;20017;-73
2023/11/02 12:32:26;;;;;;;11.93;2.17;;;22.30;82.70;;;;;;6124134;23;20148;-72
2023/11/02 12:34:55;;;;;;;10.70;2.13;;;22.40;83.50;;;;;;6098227;23;20025;-73
2023/11/02 12:37:23;;;;;;;9.90;2.33;;;22.60;82.50;;;;;;6124490;23;20013;-78
2023/11/02 12:39:56;;;;;;;9.20;2.30;;;22.80;81.80;;;;;;6123984;23;20025;-74
2023/11/02 12:42:23;;;;;;;9.63;2.33;;;23.00;81.30;;;;;;6123590;23;20006;-74
2023/11/02 12:44:51;;;;;;;9.07;2.33;;;23.10;81.10;;;;;;6125041;23;20287;-74
2023/11/02 12:47:34;;;;;;;13.32;2.30;;;23.00;81.20;;;;;;6126143;23;20157;-74
2023/11/02 12:50:01;;;;;;;;;;;22.90;81.80;;;;;;6126848;23;20456;-75
2023/11/02 12:52:39;;;;;;;12.60;2.00;;;22.80;80.90;;;;;;6100686;23;19928;-73
2023/11/02 12:55:06;;;;;;;9.13;2.00;;;22.70;81.80;;;;;;6125903;23;20014;-74
2023/11/02 12:57:39;;;;;;;11.43;2.63;;;22.60;82.20;;;;;;6126250;23;20437;-74
2023/11/02 13:00:13;;;;;;;12.48;2.38;;;22.50;81.90;;;;;;6126047;23;20321;-74
2023/11/02 13:02:39;;;;;;;9.18;2.75;;;22.50;82.00;;;;;;6126115;23;20006;-74
2023/11/02 13:05:06;;;;;;;10.02;2.53;;;22.40;82.20;;;;;;6125996;23;20010;-73
2023/11/02 13:07:33;;;;;;;13.10;2.83;;;22.40;82.30;;;;;;6126307;23;20115;-74
2023/11/02 13:10:04;;;;;;;8.02;2.20;;;22.50;82.30;;;;;;6126223;23;20014;-73
2023/11/02 13:12:30;;;;;;;11.27;2.83;;;22.50;82.80;;;;;;6125989;23;20025;-73
2023/11/02 13:14:56;;;;;;;15.68;2.95;;;22.50;82.10;;;;;;6125371;23;20018;-73
2023/11/02 13:17:24;;;;;;;22.20;3.33;;;22.50;82.30;;;;;;6124928;23;20447;-73
2023/11/02 13:19:51;;;;;;;17.02;2.80;;;22.60;82.00;;;;;;6125197;23;20069;-73
2023/11/02 13:22:18;;;;;;;14.10;2.70;;;22.60;82.20;;;;;;6124431;23;20065;-73
2023/11/02 13:24:43;;;;;;;11.65;2.42;;;22.60;82.10;;;;;;6125232;23;20002;-74
2023/11/02 13:27:09;;;;;;;14.82;2.83;;;22.50;82.40;;;;;;6126193;23;20077;-73
2023/11/02 13:29:35;;;;;;;11.00;3.08;;;22.50;82.50;;;;;;6126145;23;20044;-74
2023/11/02 13:32:01;;;;;;;11.75;2.60;;;22.40;82.40;;;;;;6126072;23;19998;-74
2023/11/02 13:34:27;;;;;;;10.20;2.63;;;22.40;82.70;;;;;;6125974;23;20446;-74
2023/11/02 13:36:53;;;;;;;10.45;3.40;;;22.30;82.70;;;;;;6126253;23;20420;-74
2023/11/02 13:39:19;;;;;;;13.15;3.28;;;22.20;82.90;;;;;;6125944;23;20014;-73
2023/11/02 13:41:44;;;;;;;15.60;3.55;;;22.10;82.90;;;;;;6125665;23;20136;-73
2023/11/02 13:44:10;;;;;;;11.75;3.15;;;22.10;83.30;;;;;;6125760;23;20013;-74
2023/11/02 13:46:36;;;;;;;11.65;3.03;;;22.00;83.50;;;;;;6125623;23;20376;-73
2023/11/02 13:49:01;;;;;;;14.63;3.30;;;22.00;83.50;;;;;;6125620;23;20012;-72
2023/11/02 13:51:27;;;;;;;14.18;3.63;;;22.00;83.60;;;;;;6125496;23;20336;-73
2023/11/02 13:53:53;;;;;;;19.45;6.03;;;22.00;83.80;;;;;;6125424;23;20006;-73
2023/11/02 13:56:21;;;;;;;21.92;7.10;;;22.00;83.80;;;;;;6125443;23;20017;-73
2023/11/02 13:58:47;;;;;;;20.67;9.88;;;21.90;84.00;;;;;;6125926;23;20012;-74
2023/11/02 14:01:13;;;;;;;27.48;12.07;;;21.90;84.20;;;;;;6125195;23;20425;-74
2023/11/02 14:03:38;;;;;;;26.05;10.43;;;21.80;84.40;;;;;;6125406;23;20002;-74
2023/11/02 14:06:05;;;;;;;18.38;7.47;;;21.80;84.60;;;;;;6099580;23;20010;-73
2023/11/02 14:08:34;;;;;;;16.65;6.80;;;21.70;84.70;;;;;;6125401;23;20424;-74
2023/11/02 14:11:05;;;;;;;21.60;6.03;;;21.70;84.70;;;;;;6125220;23;20018;-73
2023/11/02 14:13:32;;;;;;;18.08;6.22;;;21.70;85.20;;;;;;6125071;23;20504;-73
2023/11/02 14:15:58;;;;;;;18.88;4.97;;;21.70;85.30;;;;;;6125126;23;20089;-74
2023/11/02 14:18:24;;;;;;;15.32;5.28;;;21.60;85.60;;;;;;6125267;23;20361;-73
2023/11/02 14:20:50;;;;;;;16.00;4.40;;;21.60;86.00;;;;;;6125205;23;20026;-74
2023/11/02 14:23:17;;;;;;;18.63;4.07;;;21.60;86.00;;;;;;6125194;23;20005;-73
2023/11/02 14:25:44;;;;;;;12.07;4.13;;;21.60;86.10;;;;;;6125225;23;20008;-73
2023/11/02 14:28:10;;;;;;;17.45;3.70;;;21.60;86.20;;;;;;6125283;23;20009;-72
2023/11/02 14:30:35;;;;;;;13.63;3.65;;;21.50;86.40;;;;;;6098972;23;20006;-73
2023/11/02 14:33:01;;;;;;;15.40;3.80;;;21.50;86.90;;;;;;6098911;23;20453;-73
2023/11/02 14:35:27;;;;;;;21.02;3.92;;;21.50;87.00;;;;;;6124961;23;20314;-73
2023/11/02 14:37:53;;;;;;;12.65;4.00;;;21.50;87.10;;;;;;6124791;23;20053;-72
2023/11/02 14:40:39;;;;;;;15.18;3.97;;;21.50;87.30;;;;;;6125202;23;20103;-72
2023/11/02 14:43:05;;;;;;;16.33;4.47;;;21.50;87.40;;;;;;6125244;23;20002;-73
2023/11/02 14:45:31;;;;;;;16.20;4.13;;;21.50;87.50;;;;;;6124914;23;20450;-73
2023/11/02 14:47:57;;;;;;;24.55;5.30;;;21.50;87.70;;;;;;6125144;23;20104;-73
2023/11/02 14:50:24;;;;;;;16.60;4.10;;;21.50;87.90;;;;;;6125371;23;20057;-73
2023/11/02 14:52:49;;;;;;;17.33;3.85;;;21.50;88.10;;;;;;6125256;23;20488;-73
2023/11/02 14:55:16;;;;;;;15.00;3.85;;;21.50;88.00;;;;;;6124861;23;20044;-73
2023/11/02 14:57:42;;;;;;;19.25;4.10;;;21.60;88.00;;;;;;6125058;23;20005;-72
2023/11/02 15:00:12;;;;;;;16.75;4.18;;;21.60;87.90;;;;;;6125160;23;20081;-72
2023/11/02 15:02:43;;;;;;;18.10;4.18;;;21.60;87.90;;;;;;6125181;23;20060;-73
2023/11/02 15:05:09;;;;;;;20.75;3.75;;;21.60;88.20;;;;;;6124795;23;20005;-73
2023/11/02 15:07:44;;;;;;;17.52;3.88;;;21.60;88.00;;;;;;6123985;23;20009;-73
2023/11/02 15:10:10;;;;;;;19.75;4.35;;;21.60;88.00;;;;;;6124945;23;20053;-72
2023/11/02 15:12:37;;;;;;;22.42;3.53;;;21.50;88.10;;;;;;6124760;23;20002;-72
2023/11/02 15:15:03;;;;;;;20.23;3.45;;;21.50;88.10;;;;;;6124779;23;20037;-72
2023/11/02 15:17:29;;;;;;;16.52;3.75;;;21.50;88.10;;;;;;6125112;23;20002;-71
2023/11/02 15:19:55;;;;;;;16.85;3.20;;;21.50;88.00;;;;;;6124857;23;20017;-72
2023/11/02 15:22:20;;;;;;;20.13;3.75;;;21.50;88.00;;;;;;6124507;23;20005;-73
2023/11/02 15:24:46;;;;;;;22.95;4.05;;;21.40;88.00;;;;;;6150921;23;20509;-73
2023/11/02 15:27:14;;;;;;;19.33;3.78;;;21.40;88.80;;;;;;6149504;23;20026;-73
2023/11/02 15:29:40;;;;;;;27.15;6.70;;;21.40;88.10;;;;;;6125760;23;20013;-79
2023/11/02 15:32:06;;;;;;;23.67;4.88;;;21.40;88.30;;;;;;6151667;23;20001;-78
2023/11/02 15:34:32;;;;;;;17.50;3.05;;;21.30;88.30;;;;;;6154088;23;20081;-79
2023/11/02 15:36:58;;;;;;;16.10;3.17;;;21.30;88.20;;;;;;6154007;23;19997;-78
2023/11/02 15:39:24;;;;;;;22.33;4.35;;;21.30;88.30;;;;;;6154411;23;20096;-78
2023/11/02 15:41:52;;;;;;;16.80;3.25;;;21.30;88.40;;;;;;6154115;23;19997;-78
2023/11/02 15:44:18;;;;;;;15.68;3.60;;;21.30;88.50;;;;;;6154008;23;20073;-78
2023/11/02 15:46:44;;;;;;;21.27;4.38;;;21.30;88.80;;;;;;6153785;23;20025;-77
2023/11/02 15:49:10;;;;;;;28.05;4.22;;;21.30;88.70;;;;;;6154015;23;20005;-80
2023/11/02 15:51:44;;;;;;;24.67;3.85;;;21.30;88.70;;;;;;6154304;23;20081;-79
2023/11/02 15:54:11;;;;;;;20.85;4.32;;;21.30;88.80;;;;;;6154813;23;20021;-79
2023/11/02 15:56:46;;;;;;;20.63;3.88;;;21.30;88.80;;;;;;6153811;23;20017;-78
2023/11/02 15:59:14;;;;;;;17.45;3.38;;;21.30;88.70;;;;;;6153616;23;20050;-80
2023/11/02 16:01:40;;;;;;;22.20;3.70;;;21.30;88.50;;;;;;6153991;23;20057;-80
2023/11/02 16:04:06;;;;;;;17.20;3.83;;;21.30;88.40;;;;;;6155531;23;20009;-79
2023/11/02 16:06:33;;;;;;;18.13;3.65;;;21.30;89.00;;;;;;6154118;23;20392;-79
2023/11/02 16:08:59;;;;;;;18.15;4.05;;;21.30;88.60;;;;;;6153729;23;20001;-80
2023/11/02 16:11:25;;;;;;;18.33;3.53;;;21.30;88.70;;;;;;6154102;23;20332;-79
2023/11/02 16:13:50;;;;;;;18.42;3.80;;;21.20;89.10;;;;;;6154445;23;20020;-79
2023/11/02 16:16:16;;;;;;;16.25;3.80;;;21.20;89.00;;;;;;6154159;23;20002;-79
2023/11/02 16:18:42;;;;;;;20.00;4.13;;;21.20;89.00;;;;;;6155496;23;20376;-76
2023/11/02 16:21:08;;;;;;;21.17;4.20;;;21.20;89.00;;;;;;6155694;23;20002;-78
2023/11/02 16:23:34;;;;;;;20.75;4.82;;;21.20;88.30;;;;;;6126810;23;20022;-77
2023/11/02 16:26:03;;;;;;;17.33;3.83;;;21.20;88.60;;;;;;6156015;23;20417;-77
2023/11/02 16:28:31;;;;;;;24.42;4.65;;;21.20;89.20;;;;;;6154557;23;20009;-78
2023/11/02 16:30:58;;;;;;;23.35;4.97;;;21.20;88.60;;;;;;6153186;23;20514;-78
2023/11/02 16:33:23;;;;;;;18.70;3.80;;;21.20;88.60;;;;;;6154404;23;20002;-77
2023/11/02 16:35:50;;;;;;;19.75;4.20;;;21.20;89.00;;;;;;6153949;23;20005;-79
2023/11/02 16:38:18;;;;;;;26.15;4.25;;;21.20;89.00;;;;;;6154787;23;20016;-79
2023/11/02 16:40:44;;;;;;;19.90;5.18;;;21.20;89.20;;;;;;6156651;23;20014;-79
2023/11/02 16:43:11;;;;;;;23.95;4.85;;;21.20;89.20;;;;;;6156691;23;20001;-80
2023/11/02 16:45:37;;;;;;;22.25;5.55;;;21.20;89.40;;;;;;6158483;23;20281;-78
2023/11/02 16:48:03;;;;;;;20.40;4.28;;;21.20;89.50;;;;;;6157101;23;20383;-79
2023/11/02 16:50:28;;;;;;;19.50;4.30;;;21.20;89.70;;;;;;6156065;23;20004;-80
2023/11/02 16:52:54;;;;;;;18.50;4.55;;;21.20;89.60;;;;;;6156271;23;20328;-79
2023/11/02 16:55:20;;;;;;;20.30;4.38;;;21.20;89.70;;;;;;6155880;23;20009;-79
2023/11/02 16:57:46;;;;;;;14.02;4.53;;;21.20;89.50;;;;;;6129908;23;20009;-81
2023/11/02 17:00:13;;;;;;;20.35;4.63;;;21.20;89.70;;;;;;6156314;23;20379;-79
2023/11/02 17:02:39;;;;;;;22.33;4.57;;;21.20;89.70;;;;;;6155325;23;20005;-79
2023/11/02 17:05:05;;;;;;;18.52;3.85;;;21.20;89.50;;;;;;6156239;23;20084;-76
2023/11/02 17:07:31;;;;;;;16.98;3.97;;;21.20;89.30;;;;;;6156113;23;20443;-77
2023/11/02 17:09:56;;;;;;;17.80;4.10;;;21.20;89.20;;;;;;6129926;23;20013;-77
2023/11/02 17:12:22;;;;;;;20.13;3.80;;;21.20;89.30;;;;;;6156317;23;20427;-78
2023/11/02 17:14:48;;;;;;;24.75;4.85;;;21.20;89.20;;;;;;6156431;23;20052;-78
2023/11/02 17:17:13;;;;;;;21.83;4.50;;;21.30;89.30;;;;;;6156180;23;20415;-81
2023/11/02 17:19:40;;;;;;;22.00;4.53;;;21.20;89.30;;;;;;6156101;23;20053;-79
2023/11/02 17:22:06;;;;;;;16.88;3.85;;;21.20;89.40;;;;;;6156280;23;20005;-79
2023/11/02 17:24:35;;;;;;;22.55;4.95;;;21.20;89.50;;;;;;6155794;23;20028;-79
2023/11/02 17:27:01;;;;;;;23.45;4.57;;;21.20;89.20;;;;;;6155972;23;20014;-79
2023/11/02 17:29:27;;;;;;;22.00;4.65;;;21.20;89.40;;;;;;6155430;23;20005;-78
2023/11/02 17:31:53;;;;;;;19.00;4.93;;;21.30;89.60;;;;;;6155721;23;20434;-80
2023/11/02 17:34:19;;;;;;;24.13;4.68;;;21.30;89.50;;;;;;6156121;23;20009;-79
2023/11/02 17:36:45;;;;;;;20.45;4.32;;;21.20;89.50;;;;;;6155817;23;20375;-78
2023/11/02 17:39:12;;;;;;;19.50;5.10;;;21.20;89.60;;;;;;6155730;23;20087;-78
2023/11/02 17:41:39;;;;;;;20.52;4.38;;;21.20;89.60;;;;;;6129349;23;20006;-79
2023/11/02 17:44:05;;;;;;;15.18;4.55;;;21.20;89.60;;;;;;6156035;23;20005;-80
2023/11/02 17:46:31;;;;;;;24.50;4.30;;;21.20;89.60;;;;;;6156187;23;20072;-79
2023/11/02 17:48:56;;;;;;;20.60;4.60;;;21.20;89.70;;;;;;6155984;23;20001;-79
2023/11/02 17:51:24;;;;;;;19.30;4.57;;;21.20;89.70;;;;;;6156185;23;20001;-79
2023/11/02 17:53:51;;;;;;;21.30;4.53;;;21.20;89.80;;;;;;6156509;23;20033;-77
2023/11/02 17:56:17;;;;;;;22.60;5.07;;;21.20;89.70;;;;;;6155840;23;20063;-77
2023/11/02 17:58:43;;;;;;;18.67;4.50;;;21.20;89.80;;;;;;6155986;23;20005;-76
2023/11/02 18:01:08;;;;;;;16.60;4.38;;;21.20;90.00;;;;;;6155814;23;20006;-77
2023/11/02 18:03:34;;;;;;;18.85;4.63;;;21.20;90.00;;;;;;6156085;23;20002;-76
2023/11/02 18:06:00;;;;;;;21.88;4.75;;;21.10;90.10;;;;;;6155737;23;20280;-73
2023/11/02 18:08:26;;;;;;;22.08;4.75;;;21.20;90.10;;;;;;6155995;23;20060;-74
2023/11/02 18:10:52;;;;;;;27.20;4.82;;;21.10;90.10;;;;;;6129656;23;20009;-74
2023/11/02 18:13:17;;;;;;;21.58;4.47;;;21.10;90.00;;;;;;6155516;23;20427;-76
2023/11/02 18:15:49;;;;;;;21.92;4.97;;;21.10;90.20;;;;;;6155029;23;20140;-74
2023/11/02 18:18:18;;;;;;;21.05;4.85;;;21.10;90.10;;;;;;6154636;23;20080;-78
2023/11/02 18:20:45;;;;;;;27.60;5.60;;;21.10;90.40;;;;;;6155055;23;20021;-77
2023/11/02 18:23:12;;;;;;;19.98;5.47;;;21.10;90.40;;;;;;6155299;23;20451;-82
2023/11/02 18:25:38;;;;;;;21.70;5.13;;;21.10;90.40;;;;;;6155565;23;20008;-80
2023/11/02 18:28:06;;;;;;;21.30;5.38;;;21.10;90.50;;;;;;6154747;23;20010;-78
2023/11/02 18:30:32;;;;;;;23.65;4.70;;;21.00;90.60;;;;;;6129047;23;20009;-80
2023/11/02 18:32:58;;;;;;;18.85;4.60;;;21.00;90.60;;;;;;6155158;23;19997;-80
2023/11/02 18:35:25;;;;;;;18.02;5.00;;;21.00;90.70;;;;;;6154673;23;20036;-77
2023/11/02 18:37:51;;;;;;;24.52;4.72;;;20.90;90.70;;;;;;6152860;23;20013;-81
2023/11/02 18:40:17;;;;;;;23.25;5.88;;;20.90;90.80;;;;;;6152252;23;20001;-81
2023/11/02 18:42:43;;;;;;;17.40;4.43;;;20.90;90.80;;;;;;6154098;23;20002;-81
2023/11/02 18:45:13;;;;;;;26.50;5.30;;;20.80;90.90;;;;;;6154471;23;20081;-81
2023/11/02 18:47:38;;;;;;;19.88;4.82;;;20.80;90.90;;;;;;6155336;23;20024;-82
2023/11/02 18:50:06;;;;;;;18.05;4.50;;;20.80;90.90;;;;;;6155277;23;20002;-77
2023/11/02 18:52:32;;;;;;;18.88;4.65;;;20.70;90.90;;;;;;6154132;23;20519;-80
2023/11/02 18:55:00;;;;;;;20.73;4.18;;;20.70;90.90;;;;;;6154280;23;20088;-78
2023/11/02 18:57:27;;;;;;;20.10;4.75;;;20.70;90.80;;;;;;6154973;23;20336;-80
2023/11/02 18:59:53;;;;;;;17.02;4.13;;;20.70;90.90;;;;;;6155098;23;20317;-80
2023/11/02 19:02:19;;;;;;;19.73;4.82;;;20.70;90.80;;;;;;6154518;23;20002;-84
2023/11/02 19:04:45;;;;;;;19.73;4.70;;;20.70;90.80;;;;;;6154419;23;20025;-81
2023/11/02 19:07:13;;;;;;;22.23;5.03;;;20.70;90.80;;;;;;6154745;23;20388;-80
2023/11/02 19:09:45;;;;;;;18.00;4.55;;;20.70;90.70;;;;;;6154406;23;20379;-80
2023/11/02 19:12:12;;;;;;;22.95;4.97;;;20.70;90.90;;;;;;6154865;23;19998;-85
2023/11/02 19:14:39;;;;;;;20.33;4.68;;;20.70;90.70;;;;;;6154008;23;20017;-82
2023/11/02 19:17:05;;;;;;;13.20;4.53;;;20.70;90.70;;;;;;6154359;23;20038;-73
2023/11/02 19:19:32;;;;;;;19.33;5.32;;;20.80;90.60;;;;;;6155248;23;20002;-74
2023/11/02 19:21:57;;;;;;;26.58;5.10;;;20.80;90.60;;;;;;6154883;23;20002;-74
2023/11/02 19:24:25;;;;;;;16.75;5.47;;;20.80;90.70;;;;;;6154792;23;20053;-79
2023/11/02 19:26:50;;;;;;;23.38;5.20;;;20.80;90.70;;;;;;6155110;23;20059;-83
2023/11/02 19:29:16;;;;;;;18.70;5.07;;;20.80;90.90;;;;;;6155128;23;20002;-80
2023/11/02 19:31:45;;;;;;;23.13;5.38;;;20.80;90.80;;;;;;6153922;23;20006;-78
2023/11/02 19:34:12;;;;;;;21.63;4.55;;;20.80;91.00;;;;;;6154523;23;20451;-80
2023/11/02 19:36:42;;;;;;;23.38;4.97;;;20.80;90.70;;;;;;6154815;23;20005;-79
2023/11/02 19:39:08;;;;;;;27.25;5.47;;;20.80;91.00;;;;;;6154362;23;20009;-80
2023/11/02 19:41:37;;;;;;;26.05;6.45;;;20.80;91.00;;;;;;6154075;23;20160;-78
2023/11/02 19:44:03;;;;;;;19.92;4.75;;;20.90;91.00;;;;;;6128238;23;20013;-78
2023/11/02 19:46:29;;;;;;;26.60;5.13;;;20.90;91.00;;;;;;6154554;23;20004;-80
2023/11/02 19:48:55;;;;;;;18.77;4.85;;;20.90;91.00;;;;;;6154618;23;20281;-81
2023/11/02 19:51:21;;;;;;;22.02;5.75;;;20.90;91.10;;;;;;6154360;23;20451;-77
2023/11/02 19:53:47;;;;;;;23.27;4.72;;;20.90;91.00;;;;;;6156490;23;20428;-78
2023/11/02 19:56:13;;;;;;;21.08;5.13;;;20.90;91.10;;;;;;6157063;23;20095;-80
2023/11/02 19:58:38;;;;;;;21.15;4.75;;;20.90;91.10;;;;;;6157537;23;20068;-82
2023/11/02 20:01:05;;;;;;;18.52;4.82;;;20.90;91.10;;;;;;6157151;23;20006;-83